Gulbeniz A — TCZK8 — position and weather

sailwx.info

Track history (hours):
 
Tides and Currents Weather Stations Pressure Air Temp Water Temp Dewpoint Dewpoint Depression Visibility Wind Speed Wind Dir Waves Ship Positions

Gulbeniz A

Last reported at 2018-Feb-25 23:55 UTC. Time now 2018-Feb-26 01:18 UTC.
Position N 40°41' E 028°57'.

Length 210 m; draft 10.2 m.

Type: Ship (hazmat cat A). MMSI: 271042493.

Date/timePositionNaut miles runAvg speedWind from/ knotsBaromVisibWave heightAir tempDewpointWater temp
2018-Feb-25 23:55N 40°41' E 028°57'613.5
2018-Feb-25 23:30N 40°43' E 029°04'713.3
2018-Feb-25 23:00N 40°44' E 029°12'713.3
2018-Feb-25 22:30N 40°44' E 029°21'612.6
2018-Feb-25 22:00N 40°45' E 029°29'7 0.5
2018-Feb-25 08:28N 40°44' E 029°38'613.0
2018-Feb-25 07:58N 40°45' E 029°30'612.5
2018-Feb-25 07:28N 40°43' E 029°22'612.8
2018-Feb-25 07:00N 40°43' E 029°14'714.2
2018-Feb-25 06:30N 40°45' E 029°05'914.0
2018-Feb-25 05:51N 40°47' E 028°53'1012.8
2018-Feb-25 05:05N 40°51' E 028°42'297 6.4
2018-Feb-23 06:50N 37°36' E 023°52'614.5
2018-Feb-23 06:26N 37°39' E 023°45'613.8
2018-Feb-23 06:00N 37°43' E 023°41'814.8
2018-Feb-23 05:30N 37°50' E 023°37'713.6
2018-Feb-23 05:00N 37°57' E 023°36'1 0.9
2018-Feb-23 04:28N 37°57' E 023°36'0 0.0
2018-Feb-23 03:58N 37°57' E 023°36'0 0.0
2018-Feb-23 03:28N 37°57' E 023°36'0 0.0
2018-Feb-23 02:58N 37°57' E 023°36'0 0.0
2018-Feb-23 02:28N 37°57' E 023°36'0 0.0
2018-Feb-23 01:58N 37°57' E 023°36'0 0.0
2018-Feb-23 01:28N 37°57' E 023°36'0 0.0
2018-Feb-23 00:55N 37°57' E 023°36'0 0.0
2018-Feb-23 00:28N 37°57' E 023°36'0 0.0
2018-Feb-22 23:58N 37°57' E 023°36'0 0.0
2018-Feb-22 23:28N 37°57' E 023°36'0 0.0
2018-Feb-22 22:58N 37°57' E 023°36'0 0.0
2018-Feb-22 22:28N 37°57' E 023°36'0 0.0
2018-Feb-22 21:58N 37°57' E 023°36'0 0.0
2018-Feb-22 21:28N 37°57' E 023°36'0 0.0
2018-Feb-22 20:58N 37°57' E 023°36'0 0.0
2018-Feb-22 20:28N 37°57' E 023°36'0 0.0
2018-Feb-22 19:58N 37°57' E 023°36'0 0.0
2018-Feb-22 19:28N 37°57' E 023°36'0 0.0
2018-Feb-22 18:58N 37°57' E 023°36'0 0.0
2018-Feb-22 18:28N 37°57' E 023°36'0 0.0
2018-Feb-22 17:58N 37°57' E 023°36'0 0.0
2018-Feb-22 17:28N 37°57' E 023°36'0 0.0
2018-Feb-22 16:58N 37°57' E 023°36'0 0.0
2018-Feb-22 16:28N 37°57' E 023°36'0 0.1
2018-Feb-22 16:00N 37°57' E 023°36'2 4.3
2018-Feb-22 15:30N 37°55' E 023°36'2 3.2
2018-Feb-22 14:59N 37°54' E 023°34'0 0.9
2018-Feb-22 14:29N 37°53' E 023°34'0 0.8
2018-Feb-22 13:59N 37°53' E 023°35'0 0.8
2018-Feb-22 13:28N 37°53' E 023°35'0 0.7
2018-Feb-22 12:59N 37°52' E 023°35'0 0.6
2018-Feb-22 12:29N 37°52' E 023°35'0 0.8
2018-Feb-22 11:59N 37°52' E 023°35'2 3.8
2018-Feb-22 11:31N 37°51' E 023°37'4 8.3
2018-Feb-22 11:00N 37°48' E 023°41'612.3
2018-Feb-22 10:30N 37°42' E 023°44'612.3
2018-Feb-22 10:00N 37°36' E 023°45'2312.6
2018-Feb-22 08:10N 37°13' E 023°47'38414.5
2018-Feb-21 05:34N 37°51' E 015°44'916.1
2018-Feb-21 05:00N 37°58' E 015°37'714.6
2018-Feb-21 04:31N 38°05' E 015°34'714.0
2018-Feb-21 04:00N 38°12' E 015°36'714.3
2018-Feb-21 03:30N 38°17' E 015°42'815.4
2018-Feb-21 03:00N 38°23' E 015°35'815.9
2018-Feb-21 02:30N 38°28' E 015°28'816.4
2018-Feb-21 02:01N 38°34' E 015°21'916.1
2018-Feb-21 01:29N 38°40' E 015°13'816.7
2018-Feb-21 00:58N 38°46' E 015°05'52616.2
2018-Feb-19 16:30N 43°10' E 005°03'815.9
2018-Feb-19 16:00N 43°18' E 004°59'612.3
2018-Feb-19 15:30N 43°23' E 004°56'5 8.2
2018-Feb-19 14:56N 43°25' E 004°50'0 0.0
2018-Feb-19 14:30N 43°25' E 004°50'0 0.0
2018-Feb-19 14:00N 43°25' E 004°50'0 0.0
2018-Feb-19 13:30N 43°25' E 004°50'0 0.0
2018-Feb-19 13:00N 43°25' E 004°50'0 0.0
2018-Feb-19 12:30N 43°25' E 004°50'0 0.0
2018-Feb-19 12:00N 43°25' E 004°50'0 0.0
2018-Feb-19 11:30N 43°25' E 004°50'0 0.0
2018-Feb-19 11:00N 43°25' E 004°50'0 0.0
2018-Feb-19 10:30N 43°25' E 004°50'0 0.0
2018-Feb-19 10:00N 43°25' E 004°50'0 0.0
2018-Feb-19 09:30N 43°25' E 004°50'0 0.0
2018-Feb-19 09:00N 43°25' E 004°50'0 0.0
2018-Feb-19 08:30N 43°25' E 004°50'0 0.0
2018-Feb-19 08:00N 43°25' E 004°50'0 0.0
2018-Feb-19 07:30N 43°25' E 004°50'0 0.0
2018-Feb-19 07:00N 43°25' E 004°50'0 0.0
2018-Feb-19 06:30N 43°25' E 004°50'0 0.0
2018-Feb-19 06:00N 43°25' E 004°50'0 0.0
2018-Feb-19 05:30N 43°25' E 004°50'0 0.0
2018-Feb-19 05:00N 43°25' E 004°50'0 0.0
2018-Feb-19 04:30N 43°25' E 004°50'0 0.0
2018-Feb-19 04:00N 43°25' E 004°50'0 0.0
2018-Feb-19 03:30N 43°25' E 004°50'0 0.0
2018-Feb-19 03:00N 43°25' E 004°50'0 0.0
2018-Feb-19 02:30N 43°25' E 004°50'0 0.0
2018-Feb-19 02:00N 43°25' E 004°50'0 0.0
2018-Feb-19 01:30N 43°25' E 004°50'0 0.0
2018-Feb-19 01:00N 43°25' E 004°50'0 0.0
2018-Feb-19 00:30N 43°25' E 004°50'0 0.0
2018-Feb-19 00:00N 43°25' E 004°50'0 0.0
2018-Feb-18 23:30N 43°25' E 004°50'0 0.0
2018-Feb-18 23:00N 43°25' E 004°50'0 0.0
2018-Feb-18 22:30N 43°25' E 004°50'0 0.0
2018-Feb-18 22:00N 43°25' E 004°50'0 0.0
2018-Feb-18 21:30N 43°25' E 004°50'0 0.0
2018-Feb-18 21:00N 43°25' E 004°50'0 0.0
2018-Feb-18 20:30N 43°25' E 004°50'0 0.0
2018-Feb-18 19:58N 43°25' E 004°50'0 0.0
2018-Feb-18 19:30N 43°25' E 004°50'0 0.0
2018-Feb-18 19:00N 43°25' E 004°50'0 0.0
2018-Feb-18 18:30N 43°25' E 004°50'0 0.0
2018-Feb-18 18:00N 43°25' E 004°50'0 0.0
2018-Feb-18 17:30N 43°25' E 004°50'0 0.0
2018-Feb-18 17:00N 43°25' E 004°50'0 0.0
2018-Feb-18 16:30N 43°25' E 004°50'0 0.0
2018-Feb-18 15:59N 43°25' E 004°50'0 0.0
2018-Feb-18 15:30N 43°25' E 004°50'0 0.0
2018-Feb-18 15:00N 43°25' E 004°50'0 0.0
2018-Feb-18 14:30N 43°25' E 004°50'0 0.0
2018-Feb-18 14:00N 43°25' E 004°50'0 0.0
2018-Feb-18 13:30N 43°25' E 004°50'0 0.0
2018-Feb-18 13:00N 43°25' E 004°50'0 0.0
2018-Feb-18 12:30N 43°25' E 004°50'0 0.0
2018-Feb-18 12:00N 43°25' E 004°50'0 0.0
2018-Feb-18 11:30N 43°25' E 004°50'0 0.0
2018-Feb-18 11:00N 43°25' E 004°50'0 0.0
2018-Feb-18 10:30N 43°25' E 004°50'0 0.0
2018-Feb-18 10:00N 43°25' E 004°50'0 0.0
2018-Feb-18 09:30N 43°25' E 004°50'2 3.3
2018-Feb-18 08:58N 43°24' E 004°52'511.0
2018-Feb-18 08:30N 43°22' E 004°58'5 8.9
2018-Feb-18 07:56N 43°17' E 005°00'15 7.0
2018-Feb-18 05:51N 43°07' E 004°46'5 9.6
2018-Feb-18 05:18N 43°05' E 004°39'3 9.8
2018-Feb-18 05:00N 43°05' E 004°35'510.2
2018-Feb-18 04:30N 43°03' E 004°28'135 8.7
2018-Feb-17 12:53N 41°20' E 002°30'4 9.7
2018-Feb-17 12:30N 41°19' E 002°25'510.0
2018-Feb-17 12:00N 41°18' E 002°19'510.1
2018-Feb-17 11:30N 41°17' E 002°12'4 8.1
2018-Feb-17 11:00N 41°20' E 002°10'1 2.0
2018-Feb-17 10:30N 41°21' E 002°10'0 0.0
2018-Feb-17 10:00N 41°21' E 002°10'0 0.0
2018-Feb-17 09:30N 41°21' E 002°10'0 0.0
2018-Feb-17 09:00N 41°21' E 002°10'0 0.0
2018-Feb-17 08:30N 41°21' E 002°10'0 0.0
2018-Feb-17 03:27N 41°21' E 002°10'0 0.0
2018-Feb-17 03:00N 41°21' E 002°10'0 0.0
2018-Feb-17 02:30N 41°21' E 002°10'0 0.0
2018-Feb-17 02:00N 41°21' E 002°10'0 0.0
2018-Feb-17 01:30N 41°21' E 002°10'0 0.0
2018-Feb-17 01:00N 41°21' E 002°10'0 0.0
2018-Feb-17 00:30N 41°21' E 002°10'0 0.0
2018-Feb-17 00:00N 41°21' E 002°10'0 0.0
2018-Feb-16 23:30N 41°21' E 002°10'0 0.0
2018-Feb-16 23:00N 41°21' E 002°10'0 0.0
2018-Feb-16 22:30N 41°21' E 002°10'0 0.0
2018-Feb-16 22:00N 41°21' E 002°10'0 0.0
2018-Feb-16 21:30N 41°21' E 002°10'0 0.0
2018-Feb-16 21:00N 41°21' E 002°10'0 0.0
2018-Feb-16 20:30N 41°21' E 002°10'0 0.0
2018-Feb-16 20:00N 41°21' E 002°10'0 0.0
2018-Feb-16 19:30N 41°21' E 002°10'0 0.0
2018-Feb-16 19:00N 41°21' E 002°10'0 0.0
2018-Feb-16 18:30N 41°21' E 002°10'0 0.0
2018-Feb-16 18:00N 41°21' E 002°10'0 0.0
2018-Feb-16 17:30N 41°21' E 002°10'0 0.0
2018-Feb-16 17:00N 41°21' E 002°10'0 0.0
2018-Feb-16 16:24N 41°21' E 002°10'0 0.0
2018-Feb-16 16:00N 41°21' E 002°10'0 0.0
2018-Feb-16 15:30N 41°21' E 002°10'0 0.0
2018-Feb-16 15:00N 41°21' E 002°10'0 0.0
2018-Feb-16 14:30N 41°21' E 002°10'0 0.0
2018-Feb-16 14:00N 41°21' E 002°10'0 0.0
2018-Feb-16 13:30N 41°21' E 002°10'0 0.0
2018-Feb-16 13:00N 41°21' E 002°10'0 0.0
2018-Feb-16 12:30N 41°21' E 002°10'0 0.0
2018-Feb-16 12:00N 41°21' E 002°10'0 0.0
2018-Feb-16 11:30N 41°21' E 002°10'0 0.0
2018-Feb-16 11:00N 41°21' E 002°10'0 0.0
2018-Feb-16 10:30N 41°21' E 002°10'0 0.0
2018-Feb-16 10:00N 41°21' E 002°10'0 0.0
2018-Feb-16 09:30N 41°21' E 002°10'0 0.0
2018-Feb-16 09:00N 41°21' E 002°10'0 0.0
2018-Feb-16 08:30N 41°21' E 002°10'0 0.0
2018-Feb-16 08:00N 41°21' E 002°10'0 0.0
2018-Feb-16 07:30N 41°21' E 002°10'0 0.0
2018-Feb-16 07:00N 41°21' E 002°10'0 0.0
2018-Feb-16 06:30N 41°21' E 002°10'0 0.0
2018-Feb-16 06:00N 41°21' E 002°10'0 0.0
2018-Feb-16 05:30N 41°21' E 002°10'0 0.0
2018-Feb-16 04:54N 41°21' E 002°10'0 0.0
2018-Feb-16 04:30N 41°21' E 002°10'0 0.0
2018-Feb-16 04:00N 41°21' E 002°10'0 0.0
2018-Feb-16 03:30N 41°21' E 002°10'0 0.0
2018-Feb-16 03:00N 41°21' E 002°10'0 0.0
2018-Feb-16 02:30N 41°21' E 002°10'0 0.0
2018-Feb-16 02:00N 41°21' E 002°10'0 0.0
2018-Feb-16 01:30N 41°21' E 002°10'0 0.0
2018-Feb-16 01:00N 41°21' E 002°10'0 0.0
2018-Feb-16 00:30N 41°21' E 002°10'0 0.0
2018-Feb-16 00:00N 41°21' E 002°10'  
Track history (hours):
 
Tides and Currents Weather Stations Pressure Air Temp Water Temp Dewpoint Dewpoint Depression Visibility Wind Speed Wind Dir Waves Ship Positions

Gulbeniz A

Last reported at 2018-Feb-25 23:55 UTC. Time now 2018-Feb-26 01:18 UTC.
Position N 40°41' E 028°57'.

Length 210 m; draft 10.2 m.

Type: Ship (hazmat cat A). MMSI: 271042493.

Date/timePositionNaut miles runAvg speedWind from/ knotsBaromVisibWave heightAir tempDewpointWater temp
2018-Feb-25 23:55N 40°41' E 028°57'613.5
2018-Feb-25 23:30N 40°43' E 029°04'713.3
2018-Feb-25 23:00N 40°44' E 029°12'713.3
2018-Feb-25 22:30N 40°44' E 029°21'612.6
2018-Feb-25 22:00N 40°45' E 029°29'7 0.5
2018-Feb-25 08:28N 40°44' E 029°38'613.0
2018-Feb-25 07:58N 40°45' E 029°30'612.5
2018-Feb-25 07:28N 40°43' E 029°22'612.8
2018-Feb-25 07:00N 40°43' E 029°14'714.2
2018-Feb-25 06:30N 40°45' E 029°05'914.0
2018-Feb-25 05:51N 40°47' E 028°53'1012.8
2018-Feb-25 05:05N 40°51' E 028°42'297 6.4
2018-Feb-23 06:50N 37°36' E 023°52'614.5
2018-Feb-23 06:26N 37°39' E 023°45'613.8
2018-Feb-23 06:00N 37°43' E 023°41'814.8
2018-Feb-23 05:30N 37°50' E 023°37'713.6
2018-Feb-23 05:00N 37°57' E 023°36'1 0.9
2018-Feb-23 04:28N 37°57' E 023°36'0 0.0
2018-Feb-23 03:58N 37°57' E 023°36'0 0.0
2018-Feb-23 03:28N 37°57' E 023°36'0 0.0
2018-Feb-23 02:58N 37°57' E 023°36'0 0.0
2018-Feb-23 02:28N 37°57' E 023°36'0 0.0
2018-Feb-23 01:58N 37°57' E 023°36'0 0.0
2018-Feb-23 01:28N 37°57' E 023°36'0 0.0
2018-Feb-23 00:55N 37°57' E 023°36'0 0.0
2018-Feb-23 00:28N 37°57' E 023°36'0 0.0
2018-Feb-22 23:58N 37°57' E 023°36'0 0.0
2018-Feb-22 23:28N 37°57' E 023°36'0 0.0
2018-Feb-22 22:58N 37°57' E 023°36'0 0.0
2018-Feb-22 22:28N 37°57' E 023°36'0 0.0
2018-Feb-22 21:58N 37°57' E 023°36'0 0.0
2018-Feb-22 21:28N 37°57' E 023°36'0 0.0
2018-Feb-22 20:58N 37°57' E 023°36'0 0.0
2018-Feb-22 20:28N 37°57' E 023°36'0 0.0
2018-Feb-22 19:58N 37°57' E 023°36'0 0.0
2018-Feb-22 19:28N 37°57' E 023°36'0 0.0
2018-Feb-22 18:58N 37°57' E 023°36'0 0.0
2018-Feb-22 18:28N 37°57' E 023°36'0 0.0
2018-Feb-22 17:58N 37°57' E 023°36'0 0.0
2018-Feb-22 17:28N 37°57' E 023°36'0 0.0
2018-Feb-22 16:58N 37°57' E 023°36'0 0.0
2018-Feb-22 16:28N 37°57' E 023°36'0 0.1
2018-Feb-22 16:00N 37°57' E 023°36'2 4.3
2018-Feb-22 15:30N 37°55' E 023°36'2 3.2
2018-Feb-22 14:59N 37°54' E 023°34'0 0.9
2018-Feb-22 14:29N 37°53' E 023°34'0 0.8
2018-Feb-22 13:59N 37°53' E 023°35'0 0.8
2018-Feb-22 13:28N 37°53' E 023°35'0 0.7
2018-Feb-22 12:59N 37°52' E 023°35'0 0.6
2018-Feb-22 12:29N 37°52' E 023°35'0 0.8
2018-Feb-22 11:59N 37°52' E 023°35'2 3.8
2018-Feb-22 11:31N 37°51' E 023°37'4 8.3
2018-Feb-22 11:00N 37°48' E 023°41'612.3
2018-Feb-22 10:30N 37°42' E 023°44'612.3
2018-Feb-22 10:00N 37°36' E 023°45'2312.6
2018-Feb-22 08:10N 37°13' E 023°47'38414.5
2018-Feb-21 05:34N 37°51' E 015°44'916.1
2018-Feb-21 05:00N 37°58' E 015°37'714.6
2018-Feb-21 04:31N 38°05' E 015°34'714.0
2018-Feb-21 04:00N 38°12' E 015°36'714.3
2018-Feb-21 03:30N 38°17' E 015°42'815.4
2018-Feb-21 03:00N 38°23' E 015°35'815.9
2018-Feb-21 02:30N 38°28' E 015°28'816.4
2018-Feb-21 02:01N 38°34' E 015°21'916.1
2018-Feb-21 01:29N 38°40' E 015°13'816.7
2018-Feb-21 00:58N 38°46' E 015°05'52616.2
2018-Feb-19 16:30N 43°10' E 005°03'815.9
2018-Feb-19 16:00N 43°18' E 004°59'612.3
2018-Feb-19 15:30N 43°23' E 004°56'5 8.2
2018-Feb-19 14:56N 43°25' E 004°50'0 0.0
2018-Feb-19 14:30N 43°25' E 004°50'0 0.0
2018-Feb-19 14:00N 43°25' E 004°50'0 0.0
2018-Feb-19 13:30N 43°25' E 004°50'0 0.0
2018-Feb-19 13:00N 43°25' E 004°50'0 0.0
2018-Feb-19 12:30N 43°25' E 004°50'0 0.0
2018-Feb-19 12:00N 43°25' E 004°50'0 0.0
2018-Feb-19 11:30N 43°25' E 004°50'0 0.0
2018-Feb-19 11:00N 43°25' E 004°50'0 0.0
2018-Feb-19 10:30N 43°25' E 004°50'0 0.0
2018-Feb-19 10:00N 43°25' E 004°50'0 0.0
2018-Feb-19 09:30N 43°25' E 004°50'0 0.0
2018-Feb-19 09:00N 43°25' E 004°50'0 0.0
2018-Feb-19 08:30N 43°25' E 004°50'0 0.0
2018-Feb-19 08:00N 43°25' E 004°50'0 0.0
2018-Feb-19 07:30N 43°25' E 004°50'0 0.0
2018-Feb-19 07:00N 43°25' E 004°50'0 0.0
2018-Feb-19 06:30N 43°25' E 004°50'0 0.0
2018-Feb-19 06:00N 43°25' E 004°50'0 0.0
2018-Feb-19 05:30N 43°25' E 004°50'0 0.0
2018-Feb-19 05:00N 43°25' E 004°50'0 0.0
2018-Feb-19 04:30N 43°25' E 004°50'0 0.0
2018-Feb-19 04:00N 43°25' E 004°50'0 0.0
2018-Feb-19 03:30N 43°25' E 004°50'0 0.0
2018-Feb-19 03:00N 43°25' E 004°50'0 0.0
2018-Feb-19 02:30N 43°25' E 004°50'0 0.0
2018-Feb-19 02:00N 43°25' E 004°50'0 0.0
2018-Feb-19 01:30N 43°25' E 004°50'0 0.0
2018-Feb-19 01:00N 43°25' E 004°50'0 0.0
2018-Feb-19 00:30N 43°25' E 004°50'0 0.0
2018-Feb-19 00:00N 43°25' E 004°50'0 0.0
2018-Feb-18 23:30N 43°25' E 004°50'0 0.0
2018-Feb-18 23:00N 43°25' E 004°50'0 0.0
2018-Feb-18 22:30N 43°25' E 004°50'0 0.0
2018-Feb-18 22:00N 43°25' E 004°50'0 0.0
2018-Feb-18 21:30N 43°25' E 004°50'0 0.0
2018-Feb-18 21:00N 43°25' E 004°50'0 0.0
2018-Feb-18 20:30N 43°25' E 004°50'0 0.0
2018-Feb-18 19:58N 43°25' E 004°50'0 0.0
2018-Feb-18 19:30N 43°25' E 004°50'0 0.0
2018-Feb-18 19:00N 43°25' E 004°50'0 0.0
2018-Feb-18 18:30N 43°25' E 004°50'0 0.0
2018-Feb-18 18:00N 43°25' E 004°50'0 0.0
2018-Feb-18 17:30N 43°25' E 004°50'0 0.0
2018-Feb-18 17:00N 43°25' E 004°50'0 0.0
2018-Feb-18 16:30N 43°25' E 004°50'0 0.0
2018-Feb-18 15:59N 43°25' E 004°50'0 0.0
2018-Feb-18 15:30N 43°25' E 004°50'0 0.0
2018-Feb-18 15:00N 43°25' E 004°50'0 0.0
2018-Feb-18 14:30N 43°25' E 004°50'0 0.0
2018-Feb-18 14:00N 43°25' E 004°50'0 0.0
2018-Feb-18 13:30N 43°25' E 004°50'0 0.0
2018-Feb-18 13:00N 43°25' E 004°50'0 0.0
2018-Feb-18 12:30N 43°25' E 004°50'0 0.0
2018-Feb-18 12:00N 43°25' E 004°50'0 0.0
2018-Feb-18 11:30N 43°25' E 004°50'0 0.0
2018-Feb-18 11:00N 43°25' E 004°50'0 0.0
2018-Feb-18 10:30N 43°25' E 004°50'0 0.0
2018-Feb-18 10:00N 43°25' E 004°50'0 0.0
2018-Feb-18 09:30N 43°25' E 004°50'2 3.3
2018-Feb-18 08:58N 43°24' E 004°52'511.0
2018-Feb-18 08:30N 43°22' E 004°58'5 8.9
2018-Feb-18 07:56N 43°17' E 005°00'15 7.0
2018-Feb-18 05:51N 43°07' E 004°46'5 9.6
2018-Feb-18 05:18N 43°05' E 004°39'3 9.8
2018-Feb-18 05:00N 43°05' E 004°35'510.2
2018-Feb-18 04:30N 43°03' E 004°28'135 8.7
2018-Feb-17 12:53N 41°20' E 002°30'4 9.7
2018-Feb-17 12:30N 41°19' E 002°25'510.0
2018-Feb-17 12:00N 41°18' E 002°19'510.1
2018-Feb-17 11:30N 41°17' E 002°12'4 8.1
2018-Feb-17 11:00N 41°20' E 002°10'1 2.0
2018-Feb-17 10:30N 41°21' E 002°10'0 0.0
2018-Feb-17 10:00N 41°21' E 002°10'0 0.0
2018-Feb-17 09:30N 41°21' E 002°10'0 0.0
2018-Feb-17 09:00N 41°21' E 002°10'0 0.0
2018-Feb-17 08:30N 41°21' E 002°10'0 0.0
2018-Feb-17 03:27N 41°21' E 002°10'0 0.0
2018-Feb-17 03:00N 41°21' E 002°10'0 0.0
2018-Feb-17 02:30N 41°21' E 002°10'0 0.0
2018-Feb-17 02:00N 41°21' E 002°10'0 0.0
2018-Feb-17 01:30N 41°21' E 002°10'0 0.0
2018-Feb-17 01:00N 41°21' E 002°10'0 0.0
2018-Feb-17 00:30N 41°21' E 002°10'0 0.0
2018-Feb-17 00:00N 41°21' E 002°10'0 0.0
2018-Feb-16 23:30N 41°21' E 002°10'0 0.0
2018-Feb-16 23:00N 41°21' E 002°10'0 0.0
2018-Feb-16 22:30N 41°21' E 002°10'0 0.0
2018-Feb-16 22:00N 41°21' E 002°10'0 0.0
2018-Feb-16 21:30N 41°21' E 002°10'0 0.0
2018-Feb-16 21:00N 41°21' E 002°10'0 0.0
2018-Feb-16 20:30N 41°21' E 002°10'0 0.0
2018-Feb-16 20:00N 41°21' E 002°10'0 0.0
2018-Feb-16 19:30N 41°21' E 002°10'0 0.0
2018-Feb-16 19:00N 41°21' E 002°10'0 0.0
2018-Feb-16 18:30N 41°21' E 002°10'0 0.0
2018-Feb-16 18:00N 41°21' E 002°10'0 0.0
2018-Feb-16 17:30N 41°21' E 002°10'0 0.0
2018-Feb-16 17:00N 41°21' E 002°10'0 0.0
2018-Feb-16 16:24N 41°21' E 002°10'0 0.0
2018-Feb-16 16:00N 41°21' E 002°10'0 0.0
2018-Feb-16 15:30N 41°21' E 002°10'0 0.0
2018-Feb-16 15:00N 41°21' E 002°10'0 0.0
2018-Feb-16 14:30N 41°21' E 002°10'0 0.0
2018-Feb-16 14:00N 41°21' E 002°10'0 0.0
2018-Feb-16 13:30N 41°21' E 002°10'0 0.0
2018-Feb-16 13:00N 41°21' E 002°10'0 0.0
2018-Feb-16 12:30N 41°21' E 002°10'0 0.0
2018-Feb-16 12:00N 41°21' E 002°10'0 0.0
2018-Feb-16 11:30N 41°21' E 002°10'0 0.0
2018-Feb-16 11:00N 41°21' E 002°10'0 0.0
2018-Feb-16 10:30N 41°21' E 002°10'0 0.0
2018-Feb-16 10:00N 41°21' E 002°10'0 0.0
2018-Feb-16 09:30N 41°21' E 002°10'0 0.0
2018-Feb-16 09:00N 41°21' E 002°10'0 0.0
2018-Feb-16 08:30N 41°21' E 002°10'0 0.0
2018-Feb-16 08:00N 41°21' E 002°10'0 0.0
2018-Feb-16 07:30N 41°21' E 002°10'0 0.0
2018-Feb-16 07:00N 41°21' E 002°10'0 0.0
2018-Feb-16 06:30N 41°21' E 002°10'0 0.0
2018-Feb-16 06:00N 41°21' E 002°10'0 0.0
2018-Feb-16 05:30N 41°21' E 002°10'0 0.0
2018-Feb-16 04:54N 41°21' E 002°10'0 0.0
2018-Feb-16 04:30N 41°21' E 002°10'0 0.0
2018-Feb-16 04:00N 41°21' E 002°10'0 0.0
2018-Feb-16 03:30N 41°21' E 002°10'0 0.0
2018-Feb-16 03:00N 41°21' E 002°10'0 0.0
2018-Feb-16 02:30N 41°21' E 002°10'0 0.0
2018-Feb-16 02:00N 41°21' E 002°10'0 0.0
2018-Feb-16 01:30N 41°21' E 002°10'0 0.0
2018-Feb-16 01:00N 41°21' E 002°10'0 0.0
2018-Feb-16 00:30N 41°21' E 002°10'0 0.0
2018-Feb-16 00:00N 41°21' E 002°10'  

Dump ship's entire track history